Time;durP1;ratioP1;P1;durP2;ratioP2;P2;SDS_P1;SDS_P2;PMS_P1;PMS_P2;Temp;Humidity;BMP_temperature;BMP_pressure;BME280_temperature;BME280_humidity;BME280_pressure;Samples;Min_cycle;Max_cycle;Signal;HPM_P1;HPM_P2
2022/01/03 00:01:55;;;;;;;6.03;2.50;;;12.80;99.90;;;;;;5038276;28;20938;-83
2022/01/03 00:04:22;;;;;;;3.83;1.93;;;12.80;99.90;;;;;;5040354;28;20542;-82
2022/01/03 00:06:50;;;;;;;5.10;1.90;;;12.90;99.90;;;;;;5049544;28;20474;-83
2022/01/03 00:09:17;;;;;;;3.90;1.87;;;12.90;99.90;;;;;;5048515;28;20441;-82
2022/01/03 00:11:46;;;;;;;3.83;1.50;;;12.90;99.90;;;;;;5042432;28;20837;-83
2022/01/03 00:14:13;;;;;;;5.13;3.00;;;12.90;99.90;;;;;;5042014;28;20538;-83
2022/01/03 00:16:39;;;;;;;4.87;1.50;;;12.90;99.90;;;;;;5041561;28;20492;-83
2022/01/03 00:19:06;;;;;;;6.80;1.80;;;12.90;99.90;;;;;;5042693;28;20459;-83
2022/01/03 00:21:44;;;;;;;8.50;2.57;;;13.00;99.90;;;;;;5040914;28;20459;-83
2022/01/03 00:24:12;;;;;;;4.07;1.43;;;13.10;99.90;;;;;;5041016;28;20478;-83
2022/01/03 00:26:39;;;;;;;4.80;2.07;;;13.20;99.90;;;;;;5041572;28;20464;-83
2022/01/03 00:29:14;;;;;;;3.97;1.90;;;13.10;99.90;;;;;;5039483;28;20770;-83
2022/01/03 00:31:43;;;;;;;7.53;1.87;;;13.20;99.90;;;;;;5040370;28;20516;-83
2022/01/03 00:34:12;;;;;;;7.90;1.70;;;13.20;99.90;;;;;;5043282;28;20473;-83
2022/01/03 00:36:39;;;;;;;7.03;1.90;;;13.20;99.90;;;;;;5052110;28;20505;-83
2022/01/03 00:39:08;;;;;;;4.20;1.67;;;13.20;99.90;;;;;;5041508;28;20441;-83
2022/01/03 00:41:39;;;;;;;7.60;1.90;;;13.20;99.90;;;;;;5041318;28;20453;-83
2022/01/03 00:44:08;;;;;;;5.40;1.83;;;13.10;99.90;;;;;;5042249;28;20572;-83
2022/01/03 00:46:38;;;;;;;5.80;1.80;;;13.10;99.90;;;;;;5041824;28;20527;-83
2022/01/03 00:49:06;;;;;;;6.73;1.80;;;13.10;99.90;;;;;;5051534;28;20496;-83
2022/01/03 00:51:34;;;;;;;4.90;1.57;;;13.10;99.90;;;;;;5041541;28;20416;-83
2022/01/03 00:54:01;;;;;;;6.10;1.80;;;13.10;99.90;;;;;;5041520;28;20454;-83
2022/01/03 00:56:30;;;;;;;4.40;1.63;;;13.20;99.90;;;;;;5041128;28;20446;-83
2022/01/03 00:59:00;;;;;;;3.97;1.63;;;13.20;99.90;;;;;;5048199;28;20431;-82
2022/01/03 01:01:29;;;;;;;5.70;1.93;;;13.20;99.90;;;;;;5049358;28;20442;-83
2022/01/03 01:03:57;;;;;;;4.00;1.37;;;13.20;99.90;;;;;;5046464;28;20520;-83
2022/01/03 01:06:25;;;;;;;5.50;1.83;;;13.20;99.90;;;;;;5047562;28;20460;-83
2022/01/03 01:08:56;;;;;;;5.13;2.13;;;13.20;99.90;;;;;;5044932;28;20700;-83
2022/01/03 01:11:28;;;;;;;6.13;1.80;;;13.10;99.90;;;;;;5042673;28;20433;-83
2022/01/03 01:13:55;;;;;;;3.77;1.53;;;13.10;99.90;;;;;;5042041;28;20473;-83
2022/01/03 01:16:22;;;;;;;5.40;1.90;;;13.20;99.90;;;;;;5042065;28;20535;-84
2022/01/03 01:18:51;;;;;;;5.90;1.83;;;13.20;99.90;;;;;;5042385;28;20545;-83
2022/01/03 01:21:18;;;;;;;3.43;1.50;;;13.10;99.90;;;;;;5043912;28;20449;-83
2022/01/03 01:23:48;;;;;;;4.80;1.83;;;13.20;99.90;;;;;;5040209;28;20475;-83
2022/01/03 01:29:03;;;;;;;3.60;1.30;;;13.00;99.90;;;;;;5047966;28;20483;-83
2022/01/03 01:31:35;;;;;;;5.10;1.40;;;13.00;99.90;;;;;;5041125;28;20449;-83
2022/01/03 01:34:05;;;;;;;9.07;2.27;;;13.00;99.90;;;;;;5046837;28;20484;-83
2022/01/03 01:36:33;;;;;;;7.53;1.83;;;13.00;99.90;;;;;;5044736;28;20431;-83
2022/01/03 01:39:03;;;;;;;5.17;1.90;;;13.10;99.90;;;;;;5044868;28;20509;-82
2022/01/03 01:41:31;;;;;;;5.80;1.93;;;13.10;99.90;;;;;;5047733;28;20453;-82
2022/01/03 01:44:00;;;;;;;5.50;1.77;;;13.20;99.90;;;;;;5044725;28;20477;-83
2022/01/03 01:46:28;;;;;;;6.97;1.47;;;13.20;99.90;;;;;;5044976;28;20944;-83
2022/01/03 01:48:55;;;;;;;3.67;1.30;;;13.20;99.90;;;;;;5040108;28;20508;-82
2022/01/03 01:51:25;;;;;;;5.30;2.67;;;13.10;99.90;;;;;;5041857;28;20548;-83
2022/01/03 01:53:55;;;;;;;7.37;2.00;;;13.10;99.90;;;;;;5044649;28;20477;-83
2022/01/03 01:56:25;;;;;;;4.57;1.57;;;13.10;99.90;;;;;;5043469;28;20420;-83
2022/01/03 01:59:16;;;;;;;5.50;1.80;;;13.10;99.90;;;;;;5040524;28;20513;-83
2022/01/03 02:01:48;;;;;;;6.70;1.60;;;13.00;99.90;;;;;;5039647;28;20485;-83
2022/01/03 02:04:23;;;;;;;5.17;1.63;;;13.00;99.90;;;;;;5039216;28;20506;-83
2022/01/03 02:06:56;;;;;;;7.77;1.70;;;13.00;99.90;;;;;;5039750;28;21008;-83
2022/01/03 02:09:38;;;;;;;4.13;1.40;;;13.00;99.90;;;;;;5040077;28;20412;-83
2022/01/03 02:12:14;;;;;;;6.00;2.07;;;12.90;99.90;;;;;;5039292;28;20445;-83
2022/01/03 02:14:41;;;;;;;5.53;1.70;;;12.90;99.90;;;;;;5039520;28;20536;-83
2022/01/03 02:17:08;;;;;;;9.00;2.10;;;13.00;99.90;;;;;;5050559;28;20431;-83
2022/01/03 02:19:38;;;;;;;5.03;1.67;;;13.00;99.90;;;;;;5041954;28;20445;-83
2022/01/03 02:22:05;;;;;;;4.20;1.73;;;13.00;99.90;;;;;;5039453;28;20552;-83
2022/01/03 02:24:32;;;;;;;6.23;1.97;;;13.00;99.90;;;;;;5038740;28;20538;-83
2022/01/03 02:27:02;;;;;;;5.43;1.93;;;13.00;99.90;;;;;;5043813;28;20455;-83
2022/01/03 02:29:29;;;;;;;4.50;2.07;;;13.00;99.90;;;;;;5044038;28;20416;-83
2022/01/03 02:31:56;;;;;;;4.00;1.80;;;13.00;99.90;;;;;;5041123;28;20450;-83
2022/01/03 02:34:23;;;;;;;4.90;1.53;;;12.90;99.90;;;;;;5041576;28;20557;-83
2022/01/03 02:36:52;;;;;;;5.57;1.70;;;12.90;99.90;;;;;;5041827;28;20485;-83
2022/01/03 02:39:19;;;;;;;4.87;1.63;;;12.90;99.90;;;;;;5040885;28;20450;-83
2022/01/03 02:41:46;;;;;;;7.07;2.10;;;13.00;99.90;;;;;;5039509;28;20510;-83
2022/01/03 02:44:13;;;;;;;4.83;2.00;;;12.90;99.90;;;;;;5039270;28;20555;-83
2022/01/03 02:46:40;;;;;;;6.97;1.63;;;12.90;99.90;;;;;;5038443;28;20467;-83
2022/01/03 02:49:07;;;;;;;4.77;1.70;;;12.90;99.90;;;;;;5050300;28;20507;-83
2022/01/03 02:51:34;;;;;;;4.33;1.97;;;12.80;99.90;;;;;;5041441;28;20481;-83
2022/01/03 02:54:02;;;;;;;6.30;1.60;;;12.90;99.90;;;;;;5039443;28;20815;-83
2022/01/03 02:56:34;;;;;;;4.73;1.60;;;12.90;99.90;;;;;;5039442;28;20516;-83
2022/01/03 02:59:01;;;;;;;4.30;2.13;;;12.90;99.90;;;;;;5038647;28;20447;-83
2022/01/03 03:01:29;;;;;;;6.07;1.90;;;13.00;99.90;;;;;;5035630;28;20507;-83
2022/01/03 03:03:56;;;;;;;3.00;1.33;;;13.00;99.90;;;;;;5033784;28;21057;-83
2022/01/03 03:06:24;;;;;;;5.93;2.00;;;12.90;99.90;;;;;;5036123;28;20544;-83
2022/01/03 03:08:51;;;;;;;5.30;1.57;;;13.00;99.90;;;;;;5036588;28;20941;-83
2022/01/03 03:11:19;;;;;;;3.60;1.33;;;12.90;99.90;;;;;;5036493;28;20438;-83
2022/01/03 03:13:46;;;;;;;5.73;1.67;;;12.90;99.90;;;;;;5036257;28;20473;-83
2022/01/03 03:16:13;;;;;;;5.90;2.27;;;12.90;99.90;;;;;;5037860;28;20792;-83
2022/01/03 03:18:44;;;;;;;5.70;1.50;;;12.90;99.90;;;;;;5038069;28;20459;-84
2022/01/03 03:21:11;;;;;;;3.70;1.83;;;12.90;99.90;;;;;;5038111;28;20512;-83
2022/01/03 03:23:38;;;;;;;6.37;2.20;;;12.80;99.90;;;;;;5038577;28;20466;-83
2022/01/03 03:26:04;;;;;;;3.43;1.60;;;12.80;99.90;;;;;;5038115;28;20439;-83
2022/01/03 03:28:32;;;;;;;4.80;1.50;;;12.80;99.90;;;;;;5038539;28;20485;-83
2022/01/03 03:30:59;;;;;;;4.30;1.40;;;12.80;99.90;;;;;;5039498;28;20524;-83
2022/01/03 03:33:29;;;;;;;5.20;1.73;;;13.00;99.90;;;;;;5037951;28;20508;-83
2022/01/03 03:35:57;;;;;;;7.53;1.77;;;12.80;99.90;;;;;;5037633;28;20590;-83
2022/01/03 03:38:25;;;;;;;3.83;1.50;;;12.80;99.90;;;;;;5036682;28;20986;-83
2022/01/03 03:40:52;;;;;;;5.07;1.50;;;12.80;99.90;;;;;;5037943;28;20435;-83
2022/01/03 03:43:19;;;;;;;5.87;1.83;;;12.90;99.90;;;;;;5040589;28;20466;-83
2022/01/03 03:45:49;;;;;;;4.37;1.50;;;12.70;99.90;;;;;;5042526;28;20460;-83
2022/01/03 03:48:16;;;;;;;5.03;1.70;;;12.60;99.90;;;;;;5043290;28;20480;-83
2022/01/03 03:50:44;;;;;;;8.17;2.07;;;12.80;99.90;;;;;;5043025;28;20545;-83
2022/01/03 03:53:11;;;;;;;3.73;1.23;;;12.70;99.90;;;;;;5043475;28;20452;-83
2022/01/03 03:55:38;;;;;;;5.10;1.90;;;12.60;99.90;;;;;;5045309;28;20448;-83
2022/01/03 03:58:05;;;;;;;5.47;1.77;;;12.60;99.90;;;;;;5042581;28;20433;-83
2022/01/03 04:00:33;;;;;;;4.03;1.50;;;12.50;99.90;;;;;;5049022;28;20442;-83
2022/01/03 04:03:02;;;;;;;7.70;1.50;;;12.50;99.90;;;;;;5039601;28;20460;-83
2022/01/03 04:05:29;;;;;;;4.60;1.27;;;12.50;99.90;;;;;;5042255;28;20547;-84
2022/01/03 04:07:56;;;;;;;5.50;1.40;;;12.50;99.90;;;;;;5042000;28;21093;-83
2022/01/03 04:10:23;;;;;;;5.80;1.37;;;12.50;99.90;;;;;;5041921;28;20515;-83
2022/01/03 04:12:50;;;;;;;8.73;1.40;;;12.50;99.90;;;;;;5041918;28;20495;-84
2022/01/03 04:15:17;;;;;;;5.13;1.40;;;12.50;99.90;;;;;;5041655;28;20864;-83
2022/01/03 04:17:44;;;;;;;3.87;1.40;;;12.50;99.90;;;;;;5041592;28;20445;-83
2022/01/03 04:20:15;;;;;;;5.43;1.50;;;12.60;99.90;;;;;;5046464;28;20424;-83
2022/01/03 04:22:42;;;;;;;4.70;1.90;;;12.60;99.90;;;;;;5048897;28;20409;-84
2022/01/03 04:25:10;;;;;;;5.03;2.10;;;12.60;99.90;;;;;;5040759;28;20490;-83
2022/01/03 04:27:38;;;;;;;4.83;1.60;;;12.60;99.90;;;;;;5041622;28;20547;-83
2022/01/03 04:30:06;;;;;;;8.43;2.30;;;12.50;99.90;;;;;;5040319;28;20428;-83
2022/01/03 04:32:34;;;;;;;6.93;1.70;;;12.40;99.90;;;;;;5046830;28;20478;-83
2022/01/03 04:35:00;;;;;;;5.80;1.60;;;12.40;99.90;;;;;;5040472;28;20476;-83
2022/01/03 04:37:29;;;;;;;5.33;1.77;;;12.40;99.90;;;;;;5041361;28;20430;-83
2022/01/03 04:39:55;;;;;;;5.43;1.70;;;12.40;99.90;;;;;;5040519;28;20449;-83
2022/01/03 04:42:22;;;;;;;6.80;1.80;;;12.40;99.90;;;;;;5040513;28;20523;-83
2022/01/03 04:44:49;;;;;;;6.00;1.80;;;12.50;99.90;;;;;;5040551;28;20458;-83
2022/01/03 04:47:16;;;;;;;6.57;1.87;;;12.60;99.90;;;;;;5041456;28;20491;-83
2022/01/03 04:49:43;;;;;;;4.83;1.60;;;12.60;99.90;;;;;;5041160;28;20436;-82
2022/01/03 04:52:10;;;;;;;6.47;1.83;;;12.60;99.90;;;;;;5041163;28;20878;-82
2022/01/03 04:54:38;;;;;;;7.10;1.80;;;12.70;99.90;;;;;;5039989;28;20455;-83
2022/01/03 04:57:05;;;;;;;11.00;1.90;;;12.80;99.90;;;;;;5041737;28;20754;-83
2022/01/03 04:59:32;;;;;;;6.83;2.00;;;12.70;99.90;;;;;;5040123;28;20473;-83
2022/01/03 05:02:00;;;;;;;6.60;1.83;;;12.60;99.90;;;;;;5050662;28;20460;-82
2022/01/03 05:04:26;;;;;;;5.20;2.00;;;12.60;99.90;;;;;;5045335;28;20458;-83
2022/01/03 05:06:53;;;;;;;7.07;1.87;;;12.40;99.90;;;;;;5040387;28;20424;-83
2022/01/03 05:09:20;;;;;;;7.70;1.47;;;12.50;99.90;;;;;;5049561;28;20436;-82
2022/01/03 05:11:48;;;;;;;6.17;1.60;;;12.50;99.90;;;;;;5041717;28;20452;-83
2022/01/03 05:14:15;;;;;;;7.53;1.73;;;12.50;99.90;;;;;;5039887;28;20455;-83
2022/01/03 05:16:42;;;;;;;6.20;1.70;;;12.40;99.90;;;;;;5040269;28;20535;-83
2022/01/03 05:19:09;;;;;;;7.50;1.90;;;12.30;99.90;;;;;;5039974;28;20427;-83
2022/01/03 05:21:35;;;;;;;5.53;1.87;;;12.30;99.90;;;;;;5040008;28;20420;-83
2022/01/03 05:24:02;;;;;;;5.70;2.00;;;12.40;99.90;;;;;;5039588;28;20546;-83
2022/01/03 05:26:29;;;;;;;6.53;1.70;;;12.30;99.90;;;;;;5042367;28;20502;-83
2022/01/03 05:28:57;;;;;;;9.33;2.20;;;12.10;99.90;;;;;;5054401;28;20489;-83
2022/01/03 05:31:24;;;;;;;11.50;2.27;;;12.00;99.90;;;;;;5055210;28;20432;-82
2022/01/03 05:33:51;;;;;;;6.47;1.90;;;12.00;99.90;;;;;;5054784;28;20533;-82
2022/01/03 05:36:17;;;;;;;6.87;2.90;;;11.90;99.90;;;;;;5055589;28;20450;-82
2022/01/03 05:38:44;;;;;;;8.73;2.23;;;12.00;99.90;;;;;;5041819;28;20452;-83
2022/01/03 05:41:11;;;;;;;5.70;2.00;;;12.20;99.90;;;;;;5039826;28;20536;-83
2022/01/03 05:43:38;;;;;;;4.77;1.73;;;11.90;99.90;;;;;;5063037;22;20499;-82
2022/01/03 05:46:07;;;;;;;7.40;1.73;;;11.90;99.90;;;;;;5041230;28;20474;-83
2022/01/03 05:48:34;;;;;;;7.87;1.77;;;12.10;99.90;;;;;;5041699;28;20485;-85
2022/01/03 05:51:01;;;;;;;9.43;2.37;;;12.20;99.90;;;;;;5041546;28;20506;-83
2022/01/03 05:53:27;;;;;;;7.60;2.30;;;12.00;99.90;;;;;;5041929;28;20456;-83
2022/01/03 05:55:54;;;;;;;5.03;2.17;;;11.80;99.90;;;;;;5040763;28;20457;-83
2022/01/03 05:58:21;;;;;;;8.60;2.20;;;11.80;99.90;;;;;;5045497;28;20427;-83
2022/01/03 06:00:48;;;;;;;13.07;3.40;;;11.70;99.90;;;;;;5045533;28;20432;-83
2022/01/03 06:03:20;;;;;;;6.80;2.20;;;11.70;99.90;;;;;;5048911;28;20447;-85
2022/01/03 06:06:06;;;;;;;7.10;2.70;;;11.60;99.90;;;;;;5045239;28;20440;-85
2022/01/03 06:08:32;;;;;;;6.70;2.00;;;11.70;99.90;;;;;;5043785;28;20472;-84
2022/01/03 06:10:59;;;;;;;6.00;1.60;;;11.70;99.90;;;;;;5042545;28;20438;-85
2022/01/03 06:13:26;;;;;;;8.67;2.70;;;11.70;99.90;;;;;;5043261;28;20521;-83
2022/01/03 06:15:53;;;;;;;6.27;2.50;;;11.80;99.90;;;;;;5041097;28;20517;-85
2022/01/03 06:18:24;;;;;;;8.47;2.40;;;12.00;99.90;;;;;;5041520;28;20417;-84
2022/01/03 06:20:51;;;;;;;10.33;2.80;;;11.90;99.90;;;;;;5041370;28;20425;-84
2022/01/03 06:23:21;;;;;;;7.47;2.60;;;11.70;99.90;;;;;;5049796;28;20842;-85
2022/01/03 06:25:49;;;;;;;5.67;2.43;;;11.90;99.90;;;;;;5042102;28;20444;-84
2022/01/03 06:28:15;;;;;;;6.13;2.30;;;11.90;99.90;;;;;;5044673;28;20483;-84
2022/01/03 06:30:43;;;;;;;4.50;2.37;;;12.00;99.90;;;;;;5048904;28;20455;-85
2022/01/03 06:33:11;;;;;;;6.47;2.70;;;11.90;99.90;;;;;;5044319;28;20455;-82
2022/01/03 06:35:40;;;;;;;9.30;3.00;;;11.70;99.90;;;;;;5054631;28;20448;-85
2022/01/03 06:38:07;;;;;;;7.50;2.40;;;11.60;99.90;;;;;;5043920;28;20484;-84
2022/01/03 06:40:34;;;;;;;7.90;3.23;;;11.60;99.90;;;;;;5043468;28;20459;-84
2022/01/03 06:43:01;;;;;;;7.43;2.70;;;11.50;99.90;;;;;;5041045;28;20449;-84
2022/01/03 06:45:28;;;;;;;9.10;2.83;;;11.50;99.90;;;;;;5040647;28;20485;-82
2022/01/03 06:47:55;;;;;;;6.03;2.63;;;11.40;99.90;;;;;;5041708;28;20549;-84
2022/01/03 06:50:22;;;;;;;9.93;2.60;;;11.30;99.90;;;;;;5040162;28;20989;-84
2022/01/03 06:52:50;;;;;;;9.47;3.23;;;11.30;99.90;;;;;;5039317;28;20536;-84
2022/01/03 06:55:17;;;;;;;10.50;4.10;;;11.30;99.90;;;;;;5038658;28;20560;-82
2022/01/03 06:57:44;;;;;;;7.20;2.90;;;11.40;99.90;;;;;;5044290;28;20423;-84
2022/01/03 07:00:12;;;;;;;10.33;2.70;;;11.30;99.90;;;;;;5057393;28;20518;-84
2022/01/03 07:02:42;;;;;;;9.53;2.63;;;11.20;99.90;;;;;;5051521;28;20423;-82
2022/01/03 07:05:10;;;;;;;7.97;2.60;;;11.20;99.90;;;;;;5052864;28;20473;-85
2022/01/03 07:07:37;;;;;;;11.23;3.40;;;11.30;99.90;;;;;;5043819;28;20510;-81
2022/01/03 07:10:07;;;;;;;11.33;4.07;;;11.30;99.90;;;;;;5044677;28;20459;-80
2022/01/03 07:12:34;;;;;;;7.67;2.90;;;11.40;99.90;;;;;;5041961;28;20476;-82
2022/01/03 07:20:38;;;;;;;15.37;5.83;;;11.60;99.90;;;;;;5026146;28;20985;-82
2022/01/03 07:23:05;;;;;;;14.57;4.20;;;11.60;99.90;;;;;;5041202;28;20457;-81
2022/01/03 07:25:33;;;;;;;6.53;3.90;;;11.60;99.90;;;;;;5041419;28;20436;-88
2022/01/03 07:28:00;;;;;;;10.70;3.87;;;11.40;99.90;;;;;;5041333;28;20971;-84
2022/01/03 07:30:26;;;;;;;10.27;3.33;;;11.30;99.90;;;;;;5044166;28;20520;-85
2022/01/03 07:32:53;;;;;;;14.00;4.00;;;11.30;99.90;;;;;;5041337;28;20493;-85
2022/01/03 07:35:20;;;;;;;10.00;3.17;;;11.20;99.90;;;;;;5041979;28;20473;-81
2022/01/03 07:37:47;;;;;;;8.97;3.50;;;11.20;99.90;;;;;;5043849;28;20945;-83
2022/01/03 07:40:14;;;;;;;6.63;2.80;;;11.30;99.90;;;;;;5050435;28;20449;-83
2022/01/03 07:42:43;;;;;;;15.67;3.43;;;11.20;99.90;;;;;;5050803;28;20437;-86
2022/01/03 07:45:11;;;;;;;9.53;3.03;;;11.10;99.90;;;;;;5049942;28;20459;-83
2022/01/03 07:47:38;;;;;;;8.17;3.13;;;11.10;99.90;;;;;;5059240;28;20497;-82
2022/01/03 07:50:08;;;;;;;6.13;2.53;;;11.10;99.90;;;;;;5056966;28;20481;-84
2022/01/03 07:52:35;;;;;;;14.00;3.07;;;11.20;99.90;;;;;;5048627;28;20440;-85
2022/01/03 07:55:02;;;;;;;7.87;2.90;;;11.30;99.90;;;;;;5056505;28;20540;-85
2022/01/03 07:57:29;;;;;;;10.30;3.20;;;11.40;99.90;;;;;;5045629;28;20485;-85
2022/01/03 07:59:57;;;;;;;12.73;3.20;;;11.40;99.90;;;;;;5044497;28;20488;-85
2022/01/03 08:02:25;;;;;;;7.47;3.10;;;11.30;99.90;;;;;;5044535;28;21013;-84
2022/01/03 08:04:55;;;;;;;8.90;3.53;;;11.20;99.90;;;;;;5044840;28;20481;-83
2022/01/03 08:07:27;;;;;;;9.10;2.93;;;11.10;99.90;;;;;;5049458;28;20435;-82
2022/01/03 08:09:57;;;;;;;18.20;3.80;;;11.00;99.90;;;;;;5047585;28;20456;-84
2022/01/03 08:12:31;;;;;;;7.10;2.70;;;11.00;99.90;;;;;;5043811;28;20518;-85
2022/01/03 08:15:00;;;;;;;7.17;3.07;;;11.00;99.90;;;;;;5056389;28;20495;-84
2022/01/03 08:17:27;;;;;;;11.73;3.20;;;11.00;99.90;;;;;;5055215;28;20537;-82
2022/01/03 08:19:54;;;;;;;7.83;2.93;;;11.00;99.90;;;;;;5049565;28;20511;-83
2022/01/03 08:22:21;;;;;;;7.70;2.47;;;11.30;99.90;;;;;;5047566;28;20518;-84
2022/01/03 08:24:48;;;;;;;11.97;3.30;;;11.30;99.90;;;;;;5045581;28;21072;-84
2022/01/03 08:27:15;;;;;;;7.70;2.70;;;11.40;99.90;;;;;;5044804;28;20532;-84
2022/01/03 08:29:42;;;;;;;7.50;2.97;;;11.40;99.90;;;;;;5045104;28;20515;-84
2022/01/03 08:32:10;;;;;;;7.23;2.83;;;11.20;99.90;;;;;;5044682;28;20500;-85
2022/01/03 08:34:37;;;;;;;10.83;2.70;;;11.20;99.90;;;;;;5044910;28;20473;-84
2022/01/03 08:37:04;;;;;;;10.17;3.40;;;11.10;99.90;;;;;;5043793;28;20479;-83
2022/01/03 08:39:31;;;;;;;14.03;3.13;;;11.10;99.90;;;;;;5048515;28;20548;-84
2022/01/03 08:41:58;;;;;;;11.40;3.30;;;11.00;99.90;;;;;;5050501;28;20452;-85
2022/01/03 08:44:28;;;;;;;10.40;2.83;;;11.00;99.90;;;;;;5054354;28;20499;-85
2022/01/03 08:46:58;;;;;;;6.60;2.43;;;11.00;99.90;;;;;;5044725;28;21011;-80
2022/01/03 08:49:26;;;;;;;15.17;3.20;;;11.00;99.90;;;;;;5042536;28;20447;-84
2022/01/03 08:51:53;;;;;;;13.20;4.40;;;10.90;99.90;;;;;;5043559;28;20493;-84
2022/01/03 08:54:20;;;;;;;7.93;3.23;;;11.00;99.90;;;;;;5044350;28;20569;-83
2022/01/03 08:56:47;;;;;;;9.83;3.40;;;11.10;99.90;;;;;;5045606;28;20441;-82
2022/01/03 08:59:14;;;;;;;12.73;4.33;;;11.20;99.90;;;;;;5047111;28;20448;-83
2022/01/03 09:01:41;;;;;;;9.57;3.27;;;11.20;99.90;;;;;;5047234;28;20430;-82
2022/01/03 09:04:08;;;;;;;8.03;3.63;;;11.20;99.90;;;;;;5048232;28;20448;-84
2022/01/03 09:06:40;;;;;;;7.53;2.57;;;11.30;99.90;;;;;;5052679;28;20513;-81
2022/01/03 09:09:19;;;;;;;8.03;3.00;;;11.40;99.90;;;;;;5047879;28;20537;-82
2022/01/03 09:11:50;;;;;;;8.07;3.27;;;11.40;99.90;;;;;;5049770;28;20449;-84
2022/01/03 09:14:17;;;;;;;10.07;3.50;;;11.50;99.90;;;;;;5042659;28;20568;-83
2022/01/03 09:16:44;;;;;;;9.37;3.33;;;11.60;99.90;;;;;;5043202;28;20453;-85
2022/01/03 09:19:11;;;;;;;10.73;3.50;;;11.70;99.90;;;;;;5043238;28;20458;-84
2022/01/03 09:21:39;;;;;;;8.23;3.13;;;11.80;99.90;;;;;;5043631;28;20472;-84
2022/01/03 09:24:21;;;;;;;10.93;3.30;;;11.80;99.90;;;;;;5043708;28;20934;-80
2022/01/03 09:29:33;;;;;;;10.53;3.20;;;11.80;99.90;;;;;;5042617;28;20467;-83
2022/01/03 09:32:00;;;;;;;6.40;3.43;;;12.00;99.90;;;;;;5042260;28;20524;-83
2022/01/03 09:34:27;;;;;;;9.30;2.93;;;12.10;99.90;;;;;;5041611;28;20489;-83
2022/01/03 09:36:55;;;;;;;8.07;4.23;;;12.20;99.90;;;;;;5042743;28;20469;-82
2022/01/03 09:39:22;;;;;;;8.80;3.50;;;12.20;99.90;;;;;;5041163;28;20530;-81
2022/01/03 09:41:57;;;;;;;6.50;3.10;;;12.20;99.90;;;;;;5041283;28;20457;-81
2022/01/03 09:44:29;;;;;;;11.83;3.47;;;12.20;99.90;;;;;;5040783;28;20451;-81
2022/01/03 09:46:59;;;;;;;11.60;3.57;;;12.20;99.90;;;;;;5042011;28;20821;-82
2022/01/03 09:49:28;;;;;;;9.30;3.43;;;12.30;99.90;;;;;;5040587;28;20440;-81
2022/01/03 09:52:00;;;;;;;8.20;2.43;;;12.40;99.90;;;;;;5041976;28;20536;-80
2022/01/03 09:54:27;;;;;;;9.67;3.07;;;12.40;99.90;;;;;;5041494;28;20473;-81
2022/01/03 09:56:57;;;;;;;10.40;2.07;;;12.50;99.90;;;;;;5043471;28;20478;-81
2022/01/03 09:59:24;;;;;;;10.57;3.77;;;12.50;99.90;;;;;;5047316;28;20414;-79
2022/01/03 10:01:53;;;;;;;11.90;2.27;;;12.50;99.90;;;;;;5045816;28;20929;-80
2022/01/03 10:04:20;;;;;;;5.70;2.70;;;12.50;99.90;;;;;;5046516;28;20537;-81
2022/01/03 10:06:47;;;;;;;8.77;3.03;;;12.60;99.90;;;;;;5042496;28;20962;-83
2022/01/03 10:09:17;;;;;;;8.60;2.00;;;12.70;99.90;;;;;;5041052;28;20566;-83
2022/01/03 10:11:44;;;;;;;5.50;2.17;;;12.80;99.90;;;;;;5040671;28;20473;-81
2022/01/03 10:14:12;;;;;;;5.80;2.40;;;12.80;99.90;;;;;;5039914;28;20473;-81
2022/01/03 10:16:39;;;;;;;6.57;3.00;;;12.90;99.90;;;;;;5042020;28;20453;-81
2022/01/03 10:19:06;;;;;;;5.53;2.30;;;12.90;99.90;;;;;;5040895;28;20455;-80
2022/01/03 10:21:35;;;;;;;4.23;1.87;;;13.00;99.90;;;;;;5040571;28;20453;-80
2022/01/03 10:24:02;;;;;;;9.00;2.57;;;13.00;99.90;;;;;;5041894;28;20448;-80
2022/01/03 10:26:30;;;;;;;7.67;2.37;;;13.00;99.90;;;;;;5043532;28;20496;-81
2022/01/03 10:29:15;;;;;;;6.27;2.20;;;13.00;99.90;;;;;;5040893;28;20511;-81
2022/01/03 10:31:43;;;;;;;8.50;2.40;;;13.00;99.90;;;;;;5040727;28;20447;-81
2022/01/03 10:34:13;;;;;;;7.23;3.23;;;13.10;99.90;;;;;;5040772;28;20515;-81
2022/01/03 10:36:45;;;;;;;8.00;2.03;;;13.10;99.90;;;;;;5040429;28;20435;-82
2022/01/03 10:39:14;;;;;;;5.70;1.57;;;13.20;99.90;;;;;;5040424;28;20499;-81
2022/01/03 10:41:43;;;;;;;7.53;2.47;;;13.20;99.90;;;;;;5042141;28;20434;-82
2022/01/03 10:44:11;;;;;;;4.53;1.77;;;13.10;99.90;;;;;;5041485;28;20486;-82
2022/01/03 10:46:39;;;;;;;6.00;2.20;;;13.10;99.90;;;;;;5049612;28;20433;-82
2022/01/03 10:49:12;;;;;;;9.40;2.60;;;13.20;99.90;;;;;;5054841;28;20448;-83
2022/01/03 10:51:39;;;;;;;12.00;2.70;;;13.20;99.90;;;;;;5053123;28;20890;-82
2022/01/03 10:54:11;;;;;;;6.57;1.80;;;13.20;99.90;;;;;;5047838;28;20484;-83
2022/01/03 11:10:51;;;;;;;6.37;2.20;;;13.20;99.90;;;;;;5037021;28;20483;-81
2022/01/03 11:13:19;;;;;;;7.10;3.00;;;13.30;99.90;;;;;;5037786;28;20461;-80
2022/01/03 11:15:52;;;;;;;5.17;1.90;;;13.30;99.90;;;;;;5035055;28;20556;-79
2022/01/03 11:42:12;;;;;;;5.70;1.90;;;13.90;99.90;;;;;;5640709;22;20478;-85
2022/01/03 11:44:41;;;;;;;7.20;2.00;;;13.90;99.90;;;;;;5038060;28;20531;-85
2022/01/03 11:47:09;;;;;;;7.07;2.23;;;14.00;99.90;;;;;;5039163;28;20449;-85
2022/01/03 11:49:37;;;;;;;10.00;2.87;;;13.90;99.90;;;;;;5040454;28;20479;-85
2022/01/03 11:52:09;;;;;;;4.80;2.37;;;13.90;99.90;;;;;;5040536;28;20450;-84
2022/01/03 11:54:37;;;;;;;5.80;1.90;;;13.90;99.90;;;;;;5043907;28;20442;-85
2022/01/03 11:57:19;;;;;;;3.97;1.80;;;13.90;99.90;;;;;;5045335;28;20989;-86
2022/01/03 12:05:48;;;;;;;7.00;1.97;;;13.90;99.90;;;;;;5043692;28;20388;-85
2022/01/03 12:08:25;;;;;;;18.50;5.30;;;13.80;99.90;;;;;;5039805;28;20539;-85
2022/01/03 12:10:53;;;;;;;4.10;1.70;;;13.80;99.90;;;;;;5041084;28;20473;-85
2022/01/03 12:13:21;;;;;;;6.33;1.93;;;13.70;99.90;;;;;;5041100;28;20497;-86
2022/01/03 12:16:04;;;;;;;7.67;2.40;;;13.70;99.90;;;;;;5045520;28;20455;-86
2022/01/03 12:18:41;;;;;;;6.07;1.50;;;13.70;99.90;;;;;;5045450;28;20449;-87
2022/01/03 12:21:08;;;;;;;4.23;1.60;;;13.70;99.90;;;;;;5041825;28;20492;-86
2022/01/03 12:23:40;;;;;;;7.47;2.20;;;13.80;99.90;;;;;;5039217;28;21011;-87
2022/01/03 12:26:13;;;;;;;5.23;1.53;;;13.80;99.90;;;;;;5043361;28;20421;-86
2022/01/03 12:29:07;;;;;;;5.10;1.60;;;13.80;99.90;;;;;;5045894;28;20441;-85
2022/01/03 12:32:13;;;;;;;3.93;1.10;;;13.80;99.90;;;;;;5043247;28;20440;-85
2022/01/03 12:34:45;;;;;;;9.83;1.70;;;13.70;99.90;;;;;;5054133;28;20457;-85
2022/01/03 12:37:15;;;;;;;3.97;1.77;;;13.60;99.90;;;;;;5052521;28;20532;-88
2022/01/03 12:40:15;;;;;;;4.67;1.80;;;13.70;99.90;;;;;;5054257;28;20417;-87
2022/01/03 12:43:01;;;;;;;5.60;1.83;;;13.60;99.90;;;;;;5048359;28;20491;-87
2022/01/03 12:45:53;;;;;;;7.27;2.90;;;13.60;99.90;;;;;;5051165;28;20421;-85
2022/01/03 12:48:22;;;;;;;5.77;2.17;;;13.80;99.90;;;;;;5057866;28;20436;-86
2022/01/03 12:51:14;;;;;;;7.23;1.87;;;13.70;99.90;;;;;;5054103;28;20486;-84
2022/01/03 12:53:44;;;;;;;7.10;1.90;;;13.80;99.90;;;;;;5052814;28;20471;-85
2022/01/03 12:56:12;;;;;;;6.07;1.73;;;13.80;99.90;;;;;;5056637;28;20417;-84
2022/01/03 12:58:41;;;;;;;5.27;1.50;;;13.80;99.90;;;;;;5049567;28;20440;-83
2022/01/03 13:01:31;;;;;;;5.50;2.00;;;13.80;99.90;;;;;;5044937;28;20532;-83
2022/01/03 13:04:00;;;;;;;6.97;2.00;;;13.80;99.90;;;;;;5045601;28;20549;-84
2022/01/03 13:06:29;;;;;;;10.33;2.03;;;13.80;99.90;;;;;;5045025;28;20434;-85
2022/01/03 13:09:13;;;;;;;7.70;1.93;;;13.90;99.90;;;;;;5044037;28;20557;-84
2022/01/03 13:11:43;;;;;;;5.70;1.93;;;13.90;99.90;;;;;;5042563;28;20514;-87
2022/01/03 13:14:14;;;;;;;3.80;1.70;;;14.00;99.90;;;;;;5056664;28;20452;-87
2022/01/03 13:16:44;;;;;;;6.03;1.80;;;14.00;99.90;;;;;;5048251;28;20467;-86
2022/01/03 13:19:13;;;;;;;7.27;3.67;;;14.00;99.90;;;;;;5042541;28;20449;-86
2022/01/03 13:21:42;;;;;;;9.87;3.10;;;14.00;99.90;;;;;;5042884;28;20456;-85
2022/01/03 13:24:17;;;;;;;8.20;2.30;;;13.90;99.90;;;;;;5044810;28;20469;-86
2022/01/03 13:27:02;;;;;;;11.17;2.97;;;13.90;99.90;;;;;;5047991;28;20471;-87
2022/01/03 13:29:44;;;;;;;9.23;2.00;;;14.00;99.90;;;;;;5048210;28;20541;-86
2022/01/03 13:32:16;;;;;;;9.60;1.87;;;13.90;99.90;;;;;;5042468;28;20964;-86
2022/01/03 13:34:46;;;;;;;5.53;1.57;;;13.90;99.90;;;;;;5042970;28;20444;-85
2022/01/03 13:37:14;;;;;;;7.37;2.10;;;13.90;99.90;;;;;;5043255;28;20404;-85
2022/01/03 13:39:44;;;;;;;4.43;1.50;;;13.90;99.90;;;;;;5042363;28;20457;-86
2022/01/03 13:42:12;;;;;;;4.73;1.60;;;13.90;99.90;;;;;;5041073;28;20480;-85
2022/01/03 13:45:02;;;;;;;8.03;2.27;;;13.90;99.90;;;;;;5051593;28;20524;-84
2022/01/03 13:50:21;;;;;;;6.17;1.90;;;13.90;99.90;;;;;;5052666;28;20443;-85
2022/01/03 13:52:50;;;;;;;5.67;1.60;;;13.80;99.90;;;;;;5043828;28;20481;-85
2022/01/03 13:55:19;;;;;;;3.87;1.87;;;13.90;99.90;;;;;;5042641;28;20985;-85